Time;durP1;ratioP1;P1;durP2;ratioP2;P2;SDS_P1;SDS_P2;PMS_P1;PMS_P2;Temp;Humidity;BMP_temperature;BMP_pressure;BME280_temperature;BME280_humidity;BME280_pressure;Samples;Min_cycle;Max_cycle;Signal;HPM_P1;HPM_P2
2021/11/21 00:01:07;;;;;;;20.00;12.60;;;;;;;8.40;83.44;98264.36;103817;1320;138266;-79
2021/11/21 00:03:34;;;;;;;20.40;12.80;;;;;;;8.40;83.58;98261.73;103679;1316;22660;-79
2021/11/21 00:06:01;;;;;;;16.90;11.90;;;;;;;8.39;83.63;98260.90;105072;1316;22695;-80
2021/11/21 00:08:28;;;;;;;20.70;12.40;;;;;;;8.39;83.41;98260.58;104480;1316;141275;-79
2021/11/21 00:10:57;;;;;;;16.70;11.40;;;;;;;8.39;83.30;98263.30;103926;1316;22639;-79
2021/11/21 00:13:25;;;;;;;19.70;11.60;;;;;;;8.40;83.17;98257.81;104744;1315;138019;-79
2021/11/21 00:15:55;;;;;;;20.50;11.80;;;;;;;8.40;83.35;98250.39;103571;1322;25364;-79
2021/11/21 00:18:22;;;;;;;18.10;12.20;;;;;;;8.40;83.42;98246.67;103631;1321;22663;-79
2021/11/21 00:20:49;;;;;;;20.10;12.40;;;;;;;8.39;83.19;98240.92;103537;1316;137512;-80
2021/11/21 00:23:16;;;;;;;21.50;11.70;;;;;;;8.38;82.98;98240.73;104289;1315;23485;-79
2021/11/21 00:25:43;;;;;;;15.70;11.10;;;;;;;8.37;83.05;98245.30;103346;1316;138412;-79
2021/11/21 00:28:10;;;;;;;16.90;11.10;;;;;;;8.38;83.04;98240.48;104695;1322;22437;-80
2021/11/21 00:30:38;;;;;;;16.60;11.40;;;;;;;8.39;83.05;98237.17;104555;1316;137974;-80
2021/11/21 00:33:05;;;;;;;19.60;11.70;;;;;;;8.39;83.21;98231.48;104239;1318;22399;-80
2021/11/21 00:35:32;;;;;;;17.50;11.20;;;;;;;8.37;83.17;98230.70;104705;1323;22407;-79
2021/11/21 00:38:00;;;;;;;17.40;11.50;;;;;;;8.37;83.20;98224.60;103428;1319;138557;-80
2021/11/21 00:40:41;;;;;;;22.00;12.00;;;;;;;8.38;83.34;98227.78;103478;1319;22747;-80
2021/11/21 00:43:08;;;;;;;19.60;12.50;;;;;;;8.39;83.07;98223.73;104002;1319;138123;-79
2021/11/21 00:45:49;;;;;;;19.00;12.10;;;;;;;8.37;82.87;98221.10;103558;1319;25278;-80
2021/11/21 00:48:21;;;;;;;19.10;12.20;;;;;;;8.35;83.00;98215.83;104845;1322;22323;-80
2021/11/21 00:51:00;;;;;;;17.90;11.50;;;;;;;8.32;82.85;98211.04;103348;1324;138985;-80
2021/11/21 00:53:43;;;;;;;19.80;11.90;;;;;;;8.29;83.04;98207.49;103785;1323;22671;-80
2021/11/21 00:56:12;;;;;;;21.50;12.40;;;;;;;8.26;83.19;98204.60;103702;1323;138060;-79
2021/11/21 00:58:39;;;;;;;20.10;12.50;;;;;;;8.22;83.27;98200.45;103984;1321;24329;-80
2021/11/21 01:01:20;;;;;;;19.20;12.20;;;;;;;8.18;83.43;98200.46;104282;1325;137824;-80
2021/11/21 01:03:48;;;;;;;20.70;12.20;;;;;;;8.15;83.35;98193.18;103720;1319;25335;-80
2021/11/21 01:06:15;;;;;;;20.40;12.20;;;;;;;8.13;83.48;98191.67;103774;1319;22719;-80
2021/11/21 01:08:42;;;;;;;19.90;12.40;;;;;;;8.12;83.66;98184.97;105498;1325;137833;-79
2021/11/21 01:11:09;;;;;;;20.50;12.40;;;;;;;8.10;83.53;98184.66;104040;1319;22583;-80
2021/11/21 01:13:38;;;;;;;24.00;13.20;;;;;;;8.08;83.69;98181.46;103858;1316;137701;-80
2021/11/21 01:16:05;;;;;;;20.10;12.50;;;;;;;8.06;83.55;98179.95;103796;1316;22633;-79
2021/11/21 01:18:33;;;;;;;20.00;13.00;;;;;;;8.03;83.62;98171.95;103630;1319;138495;-79
2021/11/21 01:21:00;;;;;;;20.90;13.20;;;;;;;8.03;83.79;98172.45;104714;1323;25736;-80
2021/11/21 01:23:27;;;;;;;20.60;12.90;;;;;;;8.02;83.72;98173.84;104736;1324;23147;-80
2021/11/21 01:25:55;;;;;;;20.50;12.70;;;;;;;8.00;83.72;98166.90;103742;1325;138082;-79
2021/11/21 01:28:21;;;;;;;22.90;13.90;;;;;;;7.99;83.97;98167.27;104592;1319;22789;-79
2021/11/21 01:30:48;;;;;;;21.20;12.70;;;;;;;7.95;83.84;98161.44;103858;1318;138806;-79
2021/11/21 01:33:16;;;;;;;21.50;12.10;;;;;;;7.94;84.14;98159.83;104261;1322;22578;-80
2021/11/21 01:35:43;;;;;;;24.40;13.70;;;;;;;7.94;84.13;98153.59;104249;1322;23265;-80
2021/11/21 01:38:13;;;;;;;22.40;14.10;;;;;;;7.93;83.88;98146.26;104939;1322;138179;-80
2021/11/21 01:40:54;;;;;;;22.60;14.30;;;;;;;7.93;84.04;98142.34;103512;1318;23513;-80
2021/11/21 01:43:21;;;;;;;24.70;14.60;;;;;;;7.91;84.12;98137.53;105300;1319;138309;-80
2021/11/21 01:45:49;;;;;;;20.20;13.30;;;;;;;7.90;84.11;98136.36;103679;1319;22590;-80
2021/11/21 01:48:16;;;;;;;20.40;13.50;;;;;;;7.88;84.38;98133.55;103672;1319;24282;-79
2021/11/21 01:50:44;;;;;;;23.60;13.60;;;;;;;7.87;84.12;98129.47;103633;1316;138266;-80
2021/11/21 01:53:12;;;;;;;23.90;13.30;;;;;;;7.89;84.12;98128.20;103569;1318;24299;-80
2021/11/21 01:55:53;;;;;;;22.90;13.40;;;;;;;7.90;84.30;98127.09;104339;1324;137631;-80
2021/11/21 01:58:19;;;;;;;22.10;13.40;;;;;;;7.91;84.31;98119.96;103700;1317;22888;-80
2021/11/21 02:00:48;;;;;;;22.40;14.10;;;;;;;7.92;84.48;98117.05;103700;1320;137980;-81
2021/11/21 02:03:15;;;;;;;24.30;15.10;;;;;;;7.93;84.40;98110.88;103649;1319;24483;-80
2021/11/21 02:05:42;;;;;;;20.10;13.00;;;;;;;7.94;84.16;98107.29;103668;1319;24271;-81
2021/11/21 02:08:09;;;;;;;21.90;13.60;;;;;;;7.94;84.26;98096.98;103793;1324;138098;-81
2021/11/21 02:10:37;;;;;;;18.90;12.00;;;;;;;7.95;84.13;98091.08;104262;1323;22723;-81
2021/11/21 02:13:18;;;;;;;23.80;13.80;;;;;;;7.93;83.83;98086.02;103511;1324;137948;-81
2021/11/21 02:15:45;;;;;;;22.40;13.50;;;;;;;7.94;84.07;98080.01;103306;1325;22593;-80
2021/11/21 02:18:13;;;;;;;20.70;13.50;;;;;;;7.94;84.02;98076.10;104499;1318;24304;-80
2021/11/21 02:20:40;;;;;;;18.40;12.10;;;;;;;7.93;83.83;98073.05;103822;1321;138459;-80
2021/11/21 02:23:07;;;;;;;20.70;12.10;;;;;;;7.94;83.62;98067.38;103995;1319;22638;-80
2021/11/21 02:25:36;;;;;;;20.30;12.60;;;;;;;7.92;83.57;98060.42;103736;1319;137640;-80
2021/11/21 02:28:05;;;;;;;19.80;11.90;;;;;;;7.90;83.63;98060.94;104130;1319;22352;-80
2021/11/21 02:30:32;;;;;;;19.80;12.50;;;;;;;7.87;83.53;98061.14;104683;1319;137997;-81
2021/11/21 02:33:00;;;;;;;21.00;13.30;;;;;;;7.84;83.37;98055.97;103830;1316;24279;-81
2021/11/21 02:35:27;;;;;;;20.50;11.90;;;;;;;7.82;83.06;98052.84;103859;1321;22600;-80
2021/11/21 02:38:09;;;;;;;19.20;11.50;;;;;;;7.80;83.41;98049.02;103932;1316;138116;-80
2021/11/21 02:40:37;;;;;;;18.50;11.50;;;;;;;7.78;83.33;98044.83;104143;1316;23927;-80
2021/11/21 02:43:04;;;;;;;21.20;12.20;;;;;;;7.75;83.23;98041.41;103933;1318;137823;-80
2021/11/21 02:45:33;;;;;;;18.20;11.20;;;;;;;7.70;83.02;98044.95;103966;1322;24245;-80
2021/11/21 02:48:00;;;;;;;18.20;11.40;;;;;;;7.66;83.14;98045.93;103965;1319;22654;-80
2021/11/21 02:50:29;;;;;;;19.10;11.50;;;;;;;7.65;83.57;98046.05;103552;1316;138440;-80
2021/11/21 02:52:58;;;;;;;17.30;10.80;;;;;;;7.62;83.45;98039.28;103327;1322;22595;-80
2021/11/21 02:55:28;;;;;;;19.70;11.80;;;;;;;7.59;83.51;98031.10;103477;1316;138273;-80
2021/11/21 02:57:56;;;;;;;17.00;11.10;;;;;;;7.56;83.59;98027.35;104116;1323;22599;-81
2021/11/21 03:00:24;;;;;;;19.20;11.40;;;;;;;7.54;83.38;98026.70;104730;1319;22492;-81
2021/11/21 03:02:51;;;;;;;19.70;12.30;;;;;;;7.50;83.69;98024.27;103748;1323;138380;-81
2021/11/21 03:05:19;;;;;;;20.40;12.00;;;;;;;7.47;83.11;98021.82;103284;1324;22642;-80
2021/11/21 03:07:48;;;;;;;18.10;11.30;;;;;;;7.46;83.67;98015.55;103881;1324;138395;-80
2021/11/21 03:10:19;;;;;;;20.30;11.80;;;;;;;7.43;83.83;98008.12;103617;1319;22633;-80
2021/11/21 03:12:48;;;;;;;17.60;12.10;;;;;;;7.38;83.56;98006.08;104460;1322;137815;-80
2021/11/21 03:15:16;;;;;;;16.70;11.30;;;;;;;7.34;83.76;97998.60;103808;1325;22716;-80
2021/11/21 03:17:43;;;;;;;18.20;11.30;;;;;;;7.31;83.75;97994.21;103875;1323;22618;-81
2021/11/21 03:20:13;;;;;;;17.40;12.10;;;;;;;7.30;83.75;97991.86;103965;1319;138135;-81
2021/11/21 03:22:41;;;;;;;17.30;10.40;;;;;;;7.29;84.15;97983.20;103381;1319;23520;-80
2021/11/21 03:25:13;;;;;;;18.40;10.80;;;;;;;7.28;84.06;97982.14;103488;1316;137894;-80
2021/11/21 03:27:41;;;;;;;17.00;11.40;;;;;;;7.24;84.10;97983.08;104133;1320;24403;-80
2021/11/21 03:30:14;;;;;;;16.90;10.70;;;;;;;7.22;84.18;97979.00;103642;1320;22607;-80
2021/11/21 03:32:41;;;;;;;16.20;9.90;;;;;;;7.19;83.70;97976.64;103856;1323;138235;-80
2021/11/21 03:35:08;;;;;;;17.40;10.80;;;;;;;7.15;83.98;97975.57;103193;1319;22681;-81
2021/11/21 03:37:37;;;;;;;18.00;10.90;;;;;;;7.12;84.11;97975.83;103411;1318;138077;-80
2021/11/21 03:40:06;;;;;;;16.10;10.10;;;;;;;7.10;84.22;97974.54;103607;1322;22629;-80
2021/11/21 03:42:33;;;;;;;17.30;10.10;;;;;;;7.09;84.43;97974.39;104594;1325;138521;-80
2021/11/21 03:45:00;;;;;;;17.50;10.10;;;;;;;7.09;84.57;97970.17;103335;1318;22748;-80
2021/11/21 03:47:27;;;;;;;16.40;10.30;;;;;;;7.10;84.57;97968.95;103350;1319;22725;-80
2021/11/21 03:49:54;;;;;;;14.90;9.30;;;;;;;7.11;84.81;97966.05;104001;1319;138378;-80
2021/11/21 03:52:21;;;;;;;13.90;9.20;;;;;;;7.11;84.62;97963.94;103915;1319;22662;-80
2021/11/21 03:54:48;;;;;;;15.00;8.70;;;;;;;7.10;85.00;97962.78;104465;1322;138455;-80
2021/11/21 03:57:15;;;;;;;15.10;9.20;;;;;;;7.10;84.61;97960.40;103721;1323;24107;-80
2021/11/21 03:59:42;;;;;;;14.20;8.70;;;;;;;7.11;84.73;97957.83;103722;1319;22591;-80
2021/11/21 04:02:09;;;;;;;16.60;8.50;;;;;;;7.11;84.75;97952.09;103370;1322;138330;-80
2021/11/21 04:04:36;;;;;;;16.30;9.20;;;;;;;7.12;84.82;97951.88;104128;1318;22746;-80
2021/11/21 04:07:03;;;;;;;14.00;8.70;;;;;;;7.12;85.01;97954.20;103718;1319;138029;-80
2021/11/21 04:09:31;;;;;;;11.40;8.40;;;;;;;7.11;84.65;97953.60;103917;1316;25537;-80
2021/11/21 04:11:57;;;;;;;13.20;7.80;;;;;;;7.11;84.81;97952.46;103857;1319;22575;-80
2021/11/21 04:14:24;;;;;;;13.00;8.40;;;;;;;7.12;84.84;97952.25;103677;1319;137494;-80
2021/11/21 04:16:51;;;;;;;13.40;8.40;;;;;;;7.10;84.52;97951.91;103843;1319;22610;-80
2021/11/21 04:19:18;;;;;;;12.10;7.90;;;;;;;7.08;84.63;97953.09;104766;1325;137528;-80
2021/11/21 04:21:45;;;;;;;13.70;8.10;;;;;;;7.05;84.48;97951.24;104183;1325;24264;-79
2021/11/21 04:24:13;;;;;;;10.60;7.20;;;;;;;7.02;84.46;97948.96;104500;1323;22590;-80
2021/11/21 04:26:44;;;;;;;12.50;7.90;;;;;;;7.01;84.46;97944.23;103591;1318;138622;-80
2021/11/21 04:29:12;;;;;;;10.60;7.10;;;;;;;6.99;84.57;97937.48;104049;1319;22649;-80
2021/11/21 04:31:39;;;;;;;12.40;7.80;;;;;;;6.98;84.63;97937.70;104076;1323;137593;-80
2021/11/21 04:34:07;;;;;;;11.40;7.70;;;;;;;6.95;84.59;97935.97;103236;1319;22918;-80
2021/11/21 04:36:34;;;;;;;12.70;7.10;;;;;;;6.93;84.81;97930.88;103767;1326;138151;-80
2021/11/21 04:39:01;;;;;;;13.20;8.80;;;;;;;6.91;84.66;97932.00;104368;1320;25278;-80
2021/11/21 04:41:28;;;;;;;13.90;8.50;;;;;;;6.87;84.75;97928.44;103709;1323;22767;-79
2021/11/21 04:43:57;;;;;;;13.00;8.00;;;;;;;6.83;84.71;97924.63;104573;1319;137427;-80
2021/11/21 04:46:25;;;;;;;12.40;7.80;;;;;;;6.81;84.90;97924.84;104365;1319;22650;-80
2021/11/21 04:48:52;;;;;;;13.80;8.00;;;;;;;6.79;84.79;97924.21;104660;1319;138810;-80
2021/11/21 04:51:19;;;;;;;12.90;8.20;;;;;;;6.77;84.75;97922.74;104939;1319;22739;-80
2021/11/21 04:53:47;;;;;;;14.30;9.20;;;;;;;6.75;84.77;97917.61;104982;1319;22630;-80
2021/11/21 04:56:15;;;;;;;12.90;8.10;;;;;;;6.72;85.01;97912.63;103673;1322;230190;-80
2021/11/21 04:58:42;;;;;;;11.80;7.50;;;;;;;6.70;84.57;97908.12;104096;1318;22903;-80
2021/11/21 05:01:09;;;;;;;12.80;8.00;;;;;;;6.68;84.57;97904.95;103492;1324;139102;-80
2021/11/21 05:03:35;;;;;;;11.90;8.30;;;;;;;6.67;84.89;97898.47;104675;1319;22538;-80
2021/11/21 05:06:03;;;;;;;10.90;7.50;;;;;;;6.63;84.84;97897.00;104992;1318;22618;-81
2021/11/21 05:08:32;;;;;;;12.80;7.60;;;;;;;6.63;84.95;97899.20;104680;1318;137522;-81
2021/11/21 05:10:59;;;;;;;13.00;9.00;;;;;;;6.62;85.22;97895.34;103780;1319;24435;-80
2021/11/21 05:13:26;;;;;;;13.10;8.00;;;;;;;6.62;85.02;97892.30;104938;1319;138150;-80
2021/11/21 05:15:53;;;;;;;12.20;7.70;;;;;;;6.62;84.92;97889.94;104782;1316;22508;-80
2021/11/21 05:18:20;;;;;;;14.10;7.60;;;;;;;6.63;85.00;97887.91;104497;1316;22607;-80
2021/11/21 05:21:00;;;;;;;13.30;7.80;;;;;;;6.65;85.27;97886.04;104216;1320;137373;-81
2021/11/21 05:23:27;;;;;;;13.80;8.70;;;;;;;6.67;85.26;97885.66;104377;1316;22539;-81
2021/11/21 05:25:54;;;;;;;13.70;9.20;;;;;;;6.68;85.08;97878.44;105376;1318;137727;-81
2021/11/21 05:28:21;;;;;;;17.20;10.70;;;;;;;6.65;84.95;97872.85;105052;1319;25251;-81
2021/11/21 05:30:50;;;;;;;14.20;8.80;;;;;;;6.65;84.93;97871.11;104233;1319;139469;-81
2021/11/21 05:33:17;;;;;;;12.20;8.50;;;;;;;6.67;85.21;97868.01;104326;1319;22412;-80
2021/11/21 05:35:58;;;;;;;17.30;9.70;;;;;;;6.65;84.94;97869.23;104302;1316;30626;-80
2021/11/21 05:38:25;;;;;;;16.50;9.50;;;;;;;6.63;84.88;97868.27;103692;1322;137681;-80
2021/11/21 05:40:52;;;;;;;15.10;8.30;;;;;;;6.62;84.97;97862.71;104239;1316;23028;-80
2021/11/21 05:43:33;;;;;;;14.90;8.70;;;;;;;6.61;84.87;97869.80;103960;1323;138166;-81
2021/11/21 05:46:00;;;;;;;13.10;8.40;;;;;;;6.59;85.04;97868.60;104706;1319;30304;-81
2021/11/21 05:48:41;;;;;;;14.90;9.20;;;;;;;6.58;85.45;97867.31;104190;1319;137704;-81
2021/11/21 05:51:08;;;;;;;16.70;8.60;;;;;;;6.56;85.08;97872.63;103612;1327;22632;-80
2021/11/21 05:53:34;;;;;;;16.70;9.70;;;;;;;6.53;85.15;97876.02;104364;1318;22643;-80
2021/11/21 05:56:02;;;;;;;15.50;8.90;;;;;;;6.51;85.10;97878.55;104215;1324;138776;-81
2021/11/21 05:58:29;;;;;;;15.40;9.20;;;;;;;6.50;85.11;97881.67;103784;1324;22591;-80
2021/11/21 06:00:56;;;;;;;13.90;8.80;;;;;;;6.49;85.12;97875.86;104232;1319;137664;-81
2021/11/21 06:03:23;;;;;;;59.20;28.70;;;;;;;6.45;85.28;97869.76;103766;1319;22709;-81
2021/11/21 06:05:50;;;;;;;25.60;14.90;;;;;;;6.43;85.36;97871.17;103757;1320;24467;-81
2021/11/21 06:08:17;;;;;;;15.20;9.80;;;;;;;6.41;85.15;97870.63;103672;1322;138332;-81
2021/11/21 06:10:45;;;;;;;18.30;9.70;;;;;;;6.41;85.30;97872.84;104110;1319;25566;-81
2021/11/21 06:13:12;;;;;;;15.90;9.20;;;;;;;6.40;85.34;97871.98;104328;1323;138001;-81
2021/11/21 06:15:39;;;;;;;16.40;10.50;;;;;;;6.37;85.23;97871.07;103620;1322;23534;-81
2021/11/21 06:18:20;;;;;;;17.20;10.70;;;;;;;6.34;85.30;97875.98;104309;1321;22732;-81
2021/11/21 06:20:47;;;;;;;17.50;10.80;;;;;;;6.31;85.61;97873.36;103825;1316;138265;-81
2021/11/21 06:23:14;;;;;;;18.10;10.70;;;;;;;6.28;85.59;97871.50;103870;1320;22570;-81
2021/11/21 06:25:42;;;;;;;14.70;9.10;;;;;;;6.27;85.51;97870.84;103777;1325;139396;-81
2021/11/21 06:28:10;;;;;;;19.40;10.40;;;;;;;6.29;85.82;97869.38;104339;1323;25482;-81
2021/11/21 06:30:41;;;;;;;16.10;9.50;;;;;;;6.32;85.92;97869.70;103754;1319;24311;-81
2021/11/21 06:33:22;;;;;;;16.80;9.50;;;;;;;6.33;85.94;97864.05;103844;1322;137509;-81
2021/11/21 06:35:50;;;;;;;19.00;10.90;;;;;;;6.33;85.88;97859.77;103846;1319;22746;-81
2021/11/21 06:38:17;;;;;;;19.00;11.10;;;;;;;6.33;85.83;97859.52;104812;1316;138838;-81
2021/11/21 06:40:45;;;;;;;19.20;10.80;;;;;;;6.35;85.59;97857.77;104690;1318;24355;-81
2021/11/21 06:43:12;;;;;;;18.50;10.80;;;;;;;6.37;85.99;97859.09;104062;1319;138542;-81
2021/11/21 06:45:39;;;;;;;18.20;11.60;;;;;;;6.39;85.80;97854.86;104041;1325;22603;-81
2021/11/21 06:48:10;;;;;;;17.80;10.00;;;;;;;6.40;85.72;97850.06;104129;1318;26581;-81
2021/11/21 06:50:38;;;;;;;21.70;12.10;;;;;;;6.40;85.69;97849.89;103525;1324;137794;-81
2021/11/21 06:53:06;;;;;;;21.70;11.70;;;;;;;6.41;85.90;97851.87;104351;1325;23936;-81
2021/11/21 06:55:33;;;;;;;17.30;10.30;;;;;;;6.45;85.84;97855.91;103717;1323;138710;-81
2021/11/21 06:58:00;;;;;;;20.00;11.10;;;;;;;6.50;85.73;97854.30;104211;1319;25396;-81
2021/11/21 07:00:42;;;;;;;21.80;11.50;;;;;;;6.55;86.25;97850.10;103870;1319;24277;-81
2021/11/21 07:03:09;;;;;;;18.50;10.00;;;;;;;6.61;86.06;97844.34;103576;1319;137707;-81
2021/11/21 07:05:50;;;;;;;18.30;10.60;;;;;;;6.65;85.72;97842.64;103483;1323;25533;-81
2021/11/21 07:08:17;;;;;;;18.10;10.70;;;;;;;6.66;85.50;97842.83;103564;1319;138402;-81
2021/11/21 07:10:44;;;;;;;19.40;11.20;;;;;;;6.69;85.69;97842.28;103430;1325;24251;-81
2021/11/21 07:13:11;;;;;;;17.30;10.50;;;;;;;6.71;85.54;97835.95;103345;1325;138155;-81
2021/11/21 07:15:37;;;;;;;16.40;10.70;;;;;;;6.74;85.50;97832.99;103485;1319;22703;-81
2021/11/21 07:18:04;;;;;;;15.70;9.60;;;;;;;6.76;85.47;97838.36;104452;1319;24435;-81
2021/11/21 07:20:31;;;;;;;18.00;9.90;;;;;;;6.80;85.33;97841.27;103797;1322;137575;-81
2021/11/21 07:22:58;;;;;;;19.70;12.70;;;;;;;6.81;85.14;97845.13;103982;1319;23882;-81
2021/11/21 07:25:26;;;;;;;17.00;10.80;;;;;;;6.87;85.30;97845.20;104154;1318;138694;-81
2021/11/21 07:27:53;;;;;;;17.30;10.50;;;;;;;6.93;85.06;97842.52;104132;1319;23238;-81
2021/11/21 07:30:23;;;;;;;16.60;9.60;;;;;;;6.97;85.05;97836.54;104764;1324;22590;-81
2021/11/21 07:32:51;;;;;;;16.80;9.60;;;;;;;7.00;85.03;97826.23;103616;1319;137550;-81
2021/11/21 07:35:19;;;;;;;16.60;10.20;;;;;;;7.02;84.82;97827.45;103844;1319;22678;-81
2021/11/21 07:37:46;;;;;;;16.30;9.90;;;;;;;7.02;84.82;97826.27;103918;1315;138859;-81
2021/11/21 07:40:15;;;;;;;14.60;9.70;;;;;;;7.04;84.42;97824.84;104099;1319;22656;-81
2021/11/21 07:42:56;;;;;;;16.80;10.70;;;;;;;7.06;84.63;97822.29;103839;1325;23261;-81
2021/11/21 07:45:36;;;;;;;17.80;10.70;;;;;;;7.08;84.38;97819.62;103427;1320;138591;-81
2021/11/21 07:48:04;;;;;;;19.00;10.60;;;;;;;7.10;84.38;97816.98;103567;1318;22583;-81
2021/11/21 07:50:45;;;;;;;18.30;11.70;;;;;;;7.11;84.22;97815.07;103554;1323;138225;-80
2021/11/21 07:53:12;;;;;;;14.80;9.60;;;;;;;7.11;84.12;97811.52;104082;1319;22781;-81
2021/11/21 07:55:54;;;;;;;17.00;10.70;;;;;;;7.12;84.16;97807.95;103864;1326;138292;-81
2021/11/21 07:58:21;;;;;;;18.60;11.10;;;;;;;7.13;84.31;97807.06;103532;1319;25345;-81
2021/11/21 08:00:49;;;;;;;17.30;10.70;;;;;;;7.16;83.97;97809.17;104062;1323;22575;-81
2021/11/21 08:03:30;;;;;;;16.50;9.90;;;;;;;7.18;84.02;97808.51;103471;1325;138101;-81
2021/11/21 08:05:56;;;;;;;17.80;11.30;;;;;;;7.19;83.79;97800.74;103596;1319;22637;-81
2021/11/21 08:08:23;;;;;;;19.10;10.70;;;;;;;7.21;83.82;97799.80;103507;1323;138380;-81
2021/11/21 08:10:50;;;;;;;21.00;11.70;;;;;;;7.25;84.03;97797.17;103758;1319;22640;-81
2021/11/21 08:13:18;;;;;;;18.50;10.90;;;;;;;7.26;83.68;97799.11;103461;1319;137842;-81
2021/11/21 08:15:47;;;;;;;15.90;10.80;;;;;;;7.28;83.65;97795.43;103716;1323;24425;-81
2021/11/21 08:18:15;;;;;;;18.10;10.40;;;;;;;7.31;83.76;97793.08;104171;1323;22584;-81
2021/11/21 08:20:42;;;;;;;16.80;10.60;;;;;;;7.37;83.67;97788.75;103716;1318;138412;-81
2021/11/21 08:23:08;;;;;;;15.30;10.00;;;;;;;7.42;83.52;97791.55;103653;1319;22659;-81
2021/11/21 08:25:36;;;;;;;17.40;11.10;;;;;;;7.47;83.55;97794.62;103796;1319;137790;-81
2021/11/21 08:28:05;;;;;;;17.00;11.00;;;;;;;7.51;83.10;97793.36;104163;1319;22605;-81
2021/11/21 08:30:36;;;;;;;16.80;9.60;;;;;;;7.54;82.71;97792.04;104130;1319;22736;-81
2021/11/21 08:33:05;;;;;;;15.80;10.70;;;;;;;7.56;82.79;97789.83;103575;1317;138232;-81
2021/11/21 08:35:33;;;;;;;17.50;11.50;;;;;;;7.61;82.62;97790.92;103997;1316;22611;-81
2021/11/21 08:38:00;;;;;;;14.20;10.30;;;;;;;7.66;82.41;97789.34;103542;1318;138464;-80
2021/11/21 08:40:29;;;;;;;16.10;11.20;;;;;;;7.69;82.48;97787.17;104759;1319;22641;-81
2021/11/21 08:42:58;;;;;;;16.00;10.90;;;;;;;7.73;82.57;97792.73;104158;1319;22630;-81
2021/11/21 08:45:27;;;;;;;18.80;10.40;;;;;;;7.78;82.13;97791.48;104250;1323;138090;-81
2021/11/21 08:47:55;;;;;;;19.60;10.00;;;;;;;7.84;82.09;97792.94;103881;1319;22596;-81
2021/11/21 08:50:22;;;;;;;15.20;10.10;;;;;;;7.91;82.34;97790.60;103622;1323;138839;-81
2021/11/21 08:52:49;;;;;;;15.30;10.50;;;;;;;7.97;81.83;97790.83;104410;1325;22569;-81
2021/11/21 08:55:16;;;;;;;17.20;10.50;;;;;;;8.04;82.07;97791.01;103820;1324;22718;-81
2021/11/21 08:57:45;;;;;;;16.60;11.00;;;;;;;8.11;81.83;97796.05;103675;1325;138213;-81
2021/11/21 09:00:14;;;;;;;18.70;10.50;;;;;;;8.17;81.44;97792.48;103717;1325;23133;-80
2021/11/21 09:02:42;;;;;;;14.30;10.60;;;;;;;8.22;81.33;97792.48;103490;1323;137782;-81
2021/11/21 09:05:10;;;;;;;15.80;10.70;;;;;;;8.27;80.86;97790.95;103819;1325;22600;-81
2021/11/21 09:07:51;;;;;;;15.30;10.40;;;;;;;8.31;80.30;97788.84;103641;1319;138508;-80
2021/11/21 09:10:21;;;;;;;15.50;10.00;;;;;;;8.35;80.20;97786.86;104341;1324;25383;-81
2021/11/21 09:12:49;;;;;;;14.30;10.10;;;;;;;8.40;80.15;97788.05;103685;1323;24399;-80
2021/11/21 09:15:20;;;;;;;17.10;10.50;;;;;;;8.44;80.29;97777.66;103570;1323;137649;-81
2021/11/21 09:17:51;;;;;;;13.90;9.50;;;;;;;8.49;80.05;97774.93;103540;1322;22651;-80
2021/11/21 09:20:22;;;;;;;14.10;9.70;;;;;;;8.54;79.47;97773.55;103995;1319;138910;-81
2021/11/21 09:22:50;;;;;;;13.10;9.10;;;;;;;8.62;79.64;97771.55;103345;1319;22709;-81
2021/11/21 09:25:17;;;;;;;16.20;10.50;;;;;;;8.74;79.53;97773.02;103461;1324;22828;-80
2021/11/21 09:27:44;;;;;;;15.10;9.70;;;;;;;8.78;79.13;97768.67;103298;1318;138122;-81
2021/11/21 09:30:25;;;;;;;17.80;11.30;;;;;;;8.75;78.95;97763.20;103480;1322;24458;-81
2021/11/21 09:32:53;;;;;;;15.50;10.10;;;;;;;8.75;78.89;97759.23;103394;1322;137821;-80
2021/11/21 09:35:21;;;;;;;18.70;10.10;;;;;;;8.75;79.00;97756.63;103329;1319;23241;-81
2021/11/21 09:37:49;;;;;;;14.70;9.60;;;;;;;8.82;79.17;97751.41;103523;1325;138943;-80
2021/11/21 09:40:16;;;;;;;14.90;9.00;;;;;;;8.87;79.05;97749.90;103280;1321;24228;-81
2021/11/21 09:42:46;;;;;;;14.80;9.40;;;;;;;9.00;79.12;97747.89;103801;1320;22713;-81
2021/11/21 09:45:15;;;;;;;12.60;8.50;;;;;;;9.12;78.53;97745.10;103426;1319;137629;-81
2021/11/21 09:47:55;;;;;;;14.70;9.70;;;;;;;9.23;78.32;97740.84;103685;1321;22604;-81
2021/11/21 09:50:24;;;;;;;16.40;10.70;;;;;;;9.36;78.20;97743.46;103399;1318;138184;-81
2021/11/21 09:52:52;;;;;;;11.40;8.60;;;;;;;9.41;77.85;97736.30;104449;1318;22598;-81
2021/11/21 09:55:20;;;;;;;13.60;7.40;;;;;;;9.44;77.27;97736.01;103877;1322;23232;-82
2021/11/21 09:57:48;;;;;;;10.60;7.10;;;;;;;9.42;76.61;97725.56;104766;1317;138117;-81
2021/11/21 10:00:30;;;;;;;11.20;8.00;;;;;;;9.35;76.63;97721.03;103374;1323;24268;-81
2021/11/21 10:03:13;;;;;;;10.20;7.40;;;;;;;9.30;76.60;97717.45;103606;1318;138973;-81
2021/11/21 10:05:50;;;;;;;11.80;7.60;;;;;;;9.26;76.61;97716.32;103128;1325;22709;-80
2021/11/21 10:08:19;;;;;;;13.50;7.80;;;;;;;9.21;76.41;97712.17;103823;1316;137754;-81
2021/11/21 10:10:52;;;;;;;9.70;7.30;;;;;;;9.14;76.05;97711.13;103789;1322;23464;-81
2021/11/21 10:13:34;;;;;;;9.50;7.20;;;;;;;9.06;76.20;97703.20;103567;1324;24439;-81
2021/11/21 10:16:27;;;;;;;12.70;7.30;;;;;;;8.98;76.10;97702.61;103381;1319;137974;-81
2021/11/21 10:19:03;;;;;;;11.80;7.60;;;;;;;8.92;76.27;97710.53;103341;1323;24313;-81
2021/11/21 10:21:55;;;;;;;13.60;8.70;;;;;;;8.89;76.45;97709.90;103390;1319;138105;-81
2021/11/21 10:24:25;;;;;;;11.90;8.10;;;;;;;8.87;76.56;97713.19;103545;1320;23385;-81
2021/11/21 10:27:18;;;;;;;12.90;8.60;;;;;;;8.88;76.88;97709.03;103420;1322;138268;-81
2021/11/21 10:29:48;;;;;;;10.90;7.60;;;;;;;8.92;76.75;97703.10;103655;1323;22586;-81
2021/11/21 10:32:24;;;;;;;11.50;7.90;;;;;;;8.98;76.75;97699.90;103324;1318;137854;-81
2021/11/21 10:35:12;;;;;;;10.10;6.80;;;;;;;9.02;76.36;97701.48;103424;1320;22658;-80
2021/11/21 10:37:41;;;;;;;11.00;6.60;;;;;;;9.05;76.18;97700.31;103448;1325;138320;-81
2021/11/21 10:40:11;;;;;;;13.00;7.90;;;;;;;9.04;76.06;97697.86;103322;1318;24230;-80
2021/11/21 10:42:41;;;;;;;11.50;7.90;;;;;;;9.07;76.16;97698.38;103329;1318;22654;-81
2021/11/21 10:45:11;;;;;;;9.90;7.50;;;;;;;9.08;76.19;97690.45;103757;1316;137530;-81
2021/11/21 10:47:56;;;;;;;10.70;8.10;;;;;;;9.09;76.22;97696.39;103203;1318;22617;-80
2021/11/21 10:50:33;;;;;;;12.00;7.40;;;;;;;9.10;76.33;97691.52;104508;1316;137775;-81
2021/11/21 10:53:04;;;;;;;12.20;7.70;;;;;;;9.14;76.14;97686.18;103607;1319;25361;-81
2021/11/21 10:55:31;;;;;;;10.30;7.40;;;;;;;9.15;75.57;97683.48;103478;1319;22622;-80
2021/11/21 10:58:18;;;;;;;15.00;7.80;;;;;;;9.15;75.33;97678.20;103757;1323;137282;-81
2021/11/21 11:00:59;;;;;;;13.30;8.00;;;;;;;9.14;75.13;97675.80;103850;1322;22790;-82
2021/11/21 11:03:40;;;;;;;13.90;8.30;;;;;;;9.15;75.51;97674.57;103536;1323;137622;-81
2021/11/21 11:06:27;;;;;;;13.60;8.10;;;;;;;9.18;75.33;97673.90;103824;1316;25341;-82
2021/11/21 11:09:13;;;;;;;16.00;8.90;;;;;;;9.20;75.57;97671.74;103475;1323;137675;-82
2021/11/21 11:11:41;;;;;;;10.80;7.40;;;;;;;9.24;75.64;97662.38;104043;1319;23031;-81
2021/11/21 11:14:09;;;;;;;14.40;8.90;;;;;;;9.30;75.57;97661.91;103806;1319;138187;-82
2021/11/21 11:16:36;;;;;;;10.80;7.60;;;;;;;9.38;75.12;97659.58;103765;1325;25268;-81
2021/11/21 11:19:04;;;;;;;14.90;8.60;;;;;;;9.43;75.08;97657.24;103657;1319;25309;-82
2021/11/21 11:21:32;;;;;;;15.40;8.70;;;;;;;9.46;75.43;97655.65;103867;1317;137499;-82
2021/11/21 11:24:14;;;;;;;13.00;8.30;;;;;;;9.48;75.03;97652.18;104211;1318;22640;-81
2021/11/21 11:26:41;;;;;;;12.10;7.90;;;;;;;9.51;75.30;97650.52;104063;1318;138193;-81
2021/11/21 11:29:17;;;;;;;10.90;8.10;;;;;;;9.59;75.23;97650.65;103579;1322;22722;-81